Time;durP1;ratioP1;P1;durP2;ratioP2;P2;SDS_P1;SDS_P2;PMS_P1;PMS_P2;Temp;Humidity;BMP_temperature;BMP_pressure;BME280_temperature;BME280_humidity;BME280_pressure;Samples;Min_cycle;Max_cycle;Signal;HPM_P1;HPM_P2
2020/12/17 00:01:27;;;;;;;3.33;1.58;;;9.30;72.60;;;;;;2225400;55;21105;-72
2020/12/17 00:03:55;;;;;;;3.83;1.55;;;9.30;72.70;;;;;;2226052;55;21088;-72
2020/12/17 00:06:32;;;;;;;3.80;1.65;;;9.20;72.70;;;;;;2237001;56;21078;-72
2020/12/17 00:08:58;;;;;;;2.95;1.30;;;9.20;72.80;;;;;;2228866;55;20986;-73
2020/12/17 00:11:25;;;;;;;2.70;1.40;;;9.20;72.80;;;;;;2445047;55;21805;-72
2020/12/17 00:13:52;;;;;;;2.83;1.30;;;9.20;72.80;;;;;;2447343;55;21523;-72
2020/12/17 00:16:19;;;;;;;2.65;1.10;;;9.20;72.70;;;;;;2443175;55;20963;-72
2020/12/17 00:18:46;;;;;;;2.70;1.15;;;9.10;72.30;;;;;;2228891;56;21044;-72
2020/12/17 00:21:12;;;;;;;2.90;1.17;;;9.10;72.20;;;;;;2459634;55;21409;-73
2020/12/17 00:23:39;;;;;;;3.00;1.30;;;9.10;72.30;;;;;;2462727;55;21080;-72
2020/12/17 00:26:05;;;;;;;2.62;1.30;;;9.00;72.30;;;;;;2443753;55;21035;-73
2020/12/17 00:28:32;;;;;;;5.65;2.70;;;9.00;72.40;;;;;;2235147;55;20955;-72
2020/12/17 00:30:59;;;;;;;6.45;2.60;;;8.90;72.30;;;;;;2234032;55;21062;-72
2020/12/17 00:33:28;;;;;;;8.63;3.25;;;8.90;72.40;;;;;;2449951;55;21814;-72
2020/12/17 00:35:54;;;;;;;8.52;3.62;;;8.90;72.40;;;;;;2459911;55;21071;-72
2020/12/17 00:38:21;;;;;;;8.70;3.50;;;8.80;72.40;;;;;;2446538;55;21189;-72
2020/12/17 00:40:48;;;;;;;7.35;3.03;;;8.80;72.30;;;;;;2225493;55;22366;-72
2020/12/17 00:43:15;;;;;;;9.65;3.55;;;8.80;72.30;;;;;;2446134;55;21079;-72
2020/12/17 00:45:41;;;;;;;9.40;3.42;;;8.70;72.10;;;;;;2441457;55;20998;-72
2020/12/17 00:48:08;;;;;;;7.57;3.05;;;8.70;72.20;;;;;;2236525;55;21052;-72
2020/12/17 00:50:35;;;;;;;6.10;2.87;;;8.70;72.40;;;;;;2239511;56;21036;-72
2020/12/17 00:53:02;;;;;;;7.32;2.75;;;8.70;72.40;;;;;;2444936;56;21006;-72
2020/12/17 00:55:30;;;;;;;5.32;2.20;;;8.60;72.10;;;;;;2231003;56;21015;-72
2020/12/17 00:57:58;;;;;;;5.15;2.17;;;8.60;72.00;;;;;;2419555;55;21040;-73
2020/12/17 01:00:24;;;;;;;5.30;2.10;;;8.50;71.80;;;;;;2231201;56;21478;-73
2020/12/17 01:02:51;;;;;;;5.03;2.47;;;8.50;71.70;;;;;;2446286;55;21447;-72
2020/12/17 01:05:17;;;;;;;4.60;2.20;;;8.50;71.70;;;;;;2228611;56;21020;-73
2020/12/17 01:07:44;;;;;;;5.43;2.05;;;8.40;71.50;;;;;;2226413;55;21079;-72
2020/12/17 01:10:13;;;;;;;4.10;1.98;;;8.40;71.50;;;;;;2453306;56;21031;-72
2020/12/17 01:12:42;;;;;;;4.62;1.83;;;8.30;71.50;;;;;;2455568;55;20960;-72
2020/12/17 01:15:08;;;;;;;4.43;2.10;;;8.30;71.60;;;;;;2455011;55;21011;-72
2020/12/17 01:17:36;;;;;;;5.68;2.75;;;8.20;71.50;;;;;;2225644;55;21840;-72
2020/12/17 01:20:02;;;;;;;5.00;2.45;;;8.20;71.50;;;;;;2229604;56;20991;-72
2020/12/17 01:22:29;;;;;;;4.57;2.37;;;8.20;71.50;;;;;;2229679;55;21462;-72
2020/12/17 01:24:55;;;;;;;5.37;2.45;;;8.10;71.50;;;;;;2457551;55;21453;-72
2020/12/17 01:27:23;;;;;;;4.82;2.03;;;8.00;71.40;;;;;;2444129;56;21035;-72
2020/12/17 01:29:50;;;;;;;4.80;2.20;;;8.00;71.50;;;;;;2239795;56;21024;-72
2020/12/17 01:32:17;;;;;;;4.30;1.95;;;8.00;71.60;;;;;;2227128;56;20978;-73
2020/12/17 01:34:43;;;;;;;3.70;1.92;;;7.90;71.70;;;;;;2238204;56;21082;-71
2020/12/17 01:37:18;;;;;;;4.20;1.85;;;7.90;71.60;;;;;;2228319;56;21000;-72
2020/12/17 01:39:44;;;;;;;7.30;2.35;;;7.90;71.50;;;;;;2225368;56;21713;-72
2020/12/17 01:42:11;;;;;;;4.12;2.08;;;7.90;71.50;;;;;;2225619;55;20978;-72
2020/12/17 01:44:41;;;;;;;5.00;2.28;;;7.80;71.30;;;;;;2238926;56;21528;-72
2020/12/17 01:47:08;;;;;;;4.87;1.95;;;7.80;71.20;;;;;;2450166;56;21013;-72
2020/12/17 01:49:34;;;;;;;3.95;1.90;;;7.70;71.00;;;;;;2238836;56;21068;-73
2020/12/17 01:52:01;;;;;;;3.60;1.80;;;7.70;71.10;;;;;;2455495;56;20955;-71
2020/12/17 01:54:28;;;;;;;2.90;1.40;;;7.60;71.10;;;;;;2231271;56;21020;-72
2020/12/17 01:57:00;;;;;;;3.60;1.65;;;7.60;71.20;;;;;;2239028;56;21572;-73
2020/12/17 01:59:27;;;;;;;3.28;1.27;;;7.60;71.20;;;;;;2462684;55;22824;-72
2020/12/17 02:01:54;;;;;;;5.07;1.42;;;7.60;71.30;;;;;;2456637;55;21102;-72
2020/12/17 02:04:22;;;;;;;2.22;0.98;;;7.50;71.20;;;;;;2444158;55;20966;-72
2020/12/17 02:06:49;;;;;;;2.97;1.30;;;7.50;71.30;;;;;;2461952;55;21796;-73
2020/12/17 02:09:18;;;;;;;2.33;1.17;;;7.50;71.40;;;;;;2446231;56;21048;-72
2020/12/17 02:11:55;;;;;;;2.92;1.45;;;7.40;71.30;;;;;;2238756;55;21401;-72
2020/12/17 02:14:22;;;;;;;2.50;1.15;;;7.40;71.20;;;;;;2232863;56;21395;-72
2020/12/17 02:16:51;;;;;;;2.85;1.40;;;7.40;71.30;;;;;;2233520;56;21053;-73
2020/12/17 02:19:17;;;;;;;3.78;1.33;;;7.30;71.30;;;;;;2239044;56;21052;-73
2020/12/17 02:21:44;;;;;;;2.80;1.35;;;7.30;71.40;;;;;;2462773;55;21732;-72
2020/12/17 02:24:11;;;;;;;2.92;1.40;;;7.30;71.40;;;;;;2227894;56;21130;-72
2020/12/17 02:26:38;;;;;;;3.22;1.20;;;7.20;71.30;;;;;;2228056;56;20974;-71
2020/12/17 02:29:04;;;;;;;3.00;1.10;;;7.20;71.30;;;;;;2207251;57;20989;-72
2020/12/17 02:31:35;;;;;;;5.05;1.20;;;7.20;71.30;;;;;;2238819;56;20957;-72
2020/12/17 02:34:01;;;;;;;2.47;1.10;;;7.10;71.20;;;;;;2228928;56;21086;-72
2020/12/17 02:36:29;;;;;;;3.67;1.33;;;7.10;71.30;;;;;;2236341;56;21034;-72
2020/12/17 02:38:55;;;;;;;2.45;0.88;;;7.10;71.30;;;;;;2442261;55;20977;-71
2020/12/17 02:41:22;;;;;;;2.28;1.08;;;7.10;71.30;;;;;;2233934;55;21446;-71
2020/12/17 02:43:48;;;;;;;4.12;1.30;;;7.00;71.20;;;;;;2462887;55;21124;-72
2020/12/17 02:46:17;;;;;;;2.10;0.98;;;7.00;71.20;;;;;;2462573;55;21076;-72
2020/12/17 02:48:49;;;;;;;2.78;1.10;;;7.00;71.20;;;;;;2462455;55;20945;-72
2020/12/17 02:51:16;;;;;;;2.83;1.35;;;6.90;71.10;;;;;;2238801;56;21000;-72
2020/12/17 02:53:42;;;;;;;2.72;1.20;;;6.90;71.10;;;;;;2239262;56;20925;-72
2020/12/17 02:56:12;;;;;;;2.60;1.20;;;6.90;71.10;;;;;;2238773;56;21025;-72
2020/12/17 02:58:40;;;;;;;2.90;1.30;;;6.90;71.10;;;;;;2207930;57;20980;-72
2020/12/17 03:01:06;;;;;;;3.03;1.48;;;6.80;71.00;;;;;;2229800;56;20955;-73
2020/12/17 03:03:33;;;;;;;2.70;0.93;;;6.80;71.20;;;;;;2461792;55;23128;-73
2020/12/17 03:05:59;;;;;;;3.37;1.40;;;6.70;71.30;;;;;;2240461;56;20991;-71
2020/12/17 03:08:26;;;;;;;3.28;1.20;;;6.70;71.40;;;;;;2443852;55;21011;-71
2020/12/17 03:10:54;;;;;;;1.80;0.80;;;6.70;71.60;;;;;;2229014;56;21146;-71
2020/12/17 03:13:21;;;;;;;2.20;1.10;;;6.70;71.60;;;;;;2228649;56;21016;-71
2020/12/17 03:15:48;;;;;;;2.22;0.98;;;6.70;71.50;;;;;;2239272;56;21000;-72
2020/12/17 03:18:14;;;;;;;2.58;1.12;;;6.70;71.40;;;;;;2240371;55;21523;-72
2020/12/17 03:20:41;;;;;;;3.22;1.08;;;6.60;71.20;;;;;;2224900;55;21086;-72
2020/12/17 03:23:08;;;;;;;3.00;1.20;;;6.60;71.20;;;;;;2227481;56;20948;-72
2020/12/17 03:25:35;;;;;;;3.53;1.30;;;6.60;71.30;;;;;;2229503;56;22421;-72
2020/12/17 03:28:01;;;;;;;2.25;0.73;;;6.60;71.40;;;;;;2462881;56;20952;-72
2020/12/17 03:30:28;;;;;;;2.42;0.98;;;6.60;71.40;;;;;;2462070;55;20949;-72
2020/12/17 03:32:54;;;;;;;2.55;1.12;;;6.60;71.40;;;;;;2230422;56;21007;-72
2020/12/17 03:35:22;;;;;;;3.03;1.10;;;6.60;71.20;;;;;;2231951;55;21972;-71
2020/12/17 03:37:49;;;;;;;2.62;1.20;;;6.50;71.00;;;;;;2229726;55;21842;-72
2020/12/17 03:40:16;;;;;;;3.60;1.33;;;6.50;71.00;;;;;;2462323;56;20954;-72
2020/12/17 03:42:43;;;;;;;3.00;1.50;;;6.50;71.00;;;;;;2446378;55;21760;-71
2020/12/17 03:45:12;;;;;;;3.70;1.60;;;6.40;70.90;;;;;;2418843;56;21040;-72
2020/12/17 03:47:39;;;;;;;2.87;1.17;;;6.40;71.00;;;;;;2227536;55;21425;-72
2020/12/17 03:50:06;;;;;;;3.37;1.20;;;6.40;71.20;;;;;;2238617;55;21977;-72
2020/12/17 03:52:33;;;;;;;2.75;1.27;;;6.40;71.30;;;;;;2447124;55;20965;-72
2020/12/17 03:55:02;;;;;;;3.40;1.20;;;6.30;71.20;;;;;;2452970;56;20971;-71
2020/12/17 03:57:29;;;;;;;2.40;1.15;;;6.30;71.20;;;;;;2443096;55;21527;-72
2020/12/17 03:59:55;;;;;;;2.33;1.00;;;6.30;71.20;;;;;;2442333;55;21030;-71
2020/12/17 04:02:22;;;;;;;2.87;1.30;;;6.30;71.20;;;;;;2462148;55;21190;-73
2020/12/17 04:04:48;;;;;;;2.53;1.15;;;6.30;71.20;;;;;;2232005;56;21079;-71
2020/12/17 04:07:15;;;;;;;2.50;1.02;;;6.20;71.20;;;;;;2457853;56;21035;-72
2020/12/17 04:09:42;;;;;;;2.65;1.30;;;6.20;71.30;;;;;;2462302;55;20940;-72
2020/12/17 04:12:12;;;;;;;2.10;0.95;;;6.20;71.30;;;;;;2445320;55;21732;-71
2020/12/17 04:14:38;;;;;;;2.47;1.00;;;6.20;71.30;;;;;;2238868;56;20970;-71
2020/12/17 04:17:05;;;;;;;2.20;1.10;;;6.20;71.20;;;;;;2457108;55;21027;-72
2020/12/17 04:19:32;;;;;;;2.95;1.30;;;6.20;71.20;;;;;;2451701;56;21028;-71
2020/12/17 04:21:58;;;;;;;3.00;1.20;;;6.10;71.10;;;;;;2462503;55;21086;-72
2020/12/17 04:24:25;;;;;;;3.30;1.60;;;6.10;71.10;;;;;;2450246;55;21022;-71
2020/12/17 04:26:53;;;;;;;3.75;1.80;;;6.10;71.20;;;;;;2458840;55;21021;-71
2020/12/17 04:29:20;;;;;;;4.20;1.98;;;6.10;71.30;;;;;;2211566;56;21830;-72
2020/12/17 04:31:46;;;;;;;3.83;1.73;;;6.10;71.40;;;;;;2446906;55;20974;-71
2020/12/17 04:34:13;;;;;;;4.07;1.98;;;6.10;71.30;;;;;;2231105;55;21008;-72
2020/12/17 04:36:40;;;;;;;2.95;1.48;;;6.10;71.30;;;;;;2462986;55;21079;-73
2020/12/17 04:39:14;;;;;;;3.00;1.50;;;6.00;71.20;;;;;;2447877;56;20996;-72
2020/12/17 04:41:41;;;;;;;3.15;1.33;;;6.00;71.30;;;;;;2226777;55;20968;-72
2020/12/17 04:44:07;;;;;;;3.03;1.30;;;6.00;71.40;;;;;;2239091;56;21384;-72
2020/12/17 04:46:35;;;;;;;2.78;1.60;;;6.00;71.30;;;;;;2462777;56;21804;-71
2020/12/17 04:49:01;;;;;;;2.83;1.35;;;6.00;71.20;;;;;;2228063;56;21055;-71
2020/12/17 04:51:27;;;;;;;3.17;1.40;;;6.00;71.00;;;;;;2462980;56;20945;-72
2020/12/17 04:53:54;;;;;;;2.22;1.00;;;5.90;70.80;;;;;;2239193;56;20967;-72
2020/12/17 04:56:22;;;;;;;2.80;1.40;;;5.90;70.70;;;;;;2233265;56;21096;-71
2020/12/17 04:58:49;;;;;;;3.15;1.60;;;5.80;70.60;;;;;;2227602;55;21029;-72
2020/12/17 05:01:17;;;;;;;4.10;1.40;;;5.80;70.70;;;;;;2230146;55;21126;-71
2020/12/17 05:03:47;;;;;;;3.20;1.40;;;5.80;70.80;;;;;;2234457;55;20986;-71
2020/12/17 05:06:23;;;;;;;2.50;1.30;;;5.80;71.00;;;;;;2462320;55;21406;-71
2020/12/17 05:08:50;;;;;;;3.60;1.75;;;5.80;71.10;;;;;;2240329;56;21213;-71
2020/12/17 05:11:17;;;;;;;3.20;1.67;;;5.80;71.20;;;;;;2225336;55;20944;-71
2020/12/17 05:13:44;;;;;;;3.85;1.75;;;5.70;71.20;;;;;;2241219;56;20983;-71
2020/12/17 05:16:10;;;;;;;3.17;1.62;;;5.70;71.20;;;;;;2441943;55;21574;-71
2020/12/17 05:18:37;;;;;;;4.55;1.50;;;5.70;71.20;;;;;;2455254;55;20988;-71
2020/12/17 05:21:05;;;;;;;3.05;1.58;;;5.70;71.20;;;;;;2234614;56;21845;-72
2020/12/17 05:23:32;;;;;;;3.20;1.50;;;5.70;71.10;;;;;;2232353;56;20995;-71
2020/12/17 05:25:59;;;;;;;3.30;1.45;;;5.70;71.00;;;;;;2443885;55;20975;-71
2020/12/17 05:28:26;;;;;;;3.17;1.60;;;5.60;71.00;;;;;;2207233;56;21083;-72
2020/12/17 05:30:53;;;;;;;4.55;1.90;;;5.60;71.10;;;;;;2452840;56;20983;-71
2020/12/17 05:33:21;;;;;;;4.32;1.73;;;5.60;71.20;;;;;;2227027;55;21118;-72
2020/12/17 05:35:47;;;;;;;5.50;1.80;;;5.60;71.30;;;;;;2233653;56;21934;-71
2020/12/17 05:38:15;;;;;;;3.08;1.60;;;5.60;71.40;;;;;;2232291;56;21075;-71
2020/12/17 05:40:42;;;;;;;3.58;1.77;;;5.60;71.60;;;;;;2451407;55;21029;-71
2020/12/17 05:43:09;;;;;;;3.58;2.00;;;5.60;71.70;;;;;;2453561;56;20978;-71
2020/12/17 05:45:37;;;;;;;4.22;2.10;;;5.60;72.00;;;;;;2445964;56;20967;-71
2020/12/17 05:48:23;;;;;;;3.65;1.83;;;5.70;72.30;;;;;;2232795;56;20979;-71
2020/12/17 05:50:54;;;;;;;4.47;1.83;;;5.60;72.20;;;;;;2239205;56;21016;-71
2020/12/17 05:53:22;;;;;;;3.05;1.65;;;5.60;72.30;;;;;;2238761;55;20976;-71
2020/12/17 05:55:51;;;;;;;3.95;2.08;;;5.70;72.60;;;;;;2239378;56;21516;-71
2020/12/17 05:58:18;;;;;;;3.45;1.83;;;5.70;72.60;;;;;;2462506;55;21032;-72
2020/12/17 06:00:44;;;;;;;3.62;1.80;;;5.70;72.60;;;;;;2241713;56;20972;-72
2020/12/17 06:03:11;;;;;;;5.40;2.28;;;5.80;72.90;;;;;;2225968;56;21004;-71
2020/12/17 06:05:42;;;;;;;6.03;2.40;;;5.80;72.90;;;;;;2462898;55;20932;-72
2020/12/17 06:08:12;;;;;;;4.75;2.58;;;5.80;73.00;;;;;;2441941;55;21894;-71
2020/12/17 06:10:46;;;;;;;4.95;2.97;;;5.90;73.10;;;;;;2450796;55;21011;-72
2020/12/17 06:13:13;;;;;;;5.43;2.58;;;5.90;73.90;;;;;;2225897;55;21045;-71
2020/12/17 06:15:39;;;;;;;6.12;2.83;;;5.90;73.20;;;;;;2241608;56;20976;-72
2020/12/17 06:18:06;;;;;;;5.25;3.05;;;5.90;73.20;;;;;;2224670;56;21009;-72
2020/12/17 06:20:33;;;;;;;6.70;3.22;;;6.00;73.30;;;;;;2462260;55;20977;-71
2020/12/17 06:23:05;;;;;;;4.20;2.50;;;6.00;73.20;;;;;;2446974;55;20982;-71
2020/12/17 06:25:34;;;;;;;9.50;4.70;;;6.10;73.20;;;;;;2231288;55;21026;-72
2020/12/17 06:28:04;;;;;;;9.13;4.93;;;6.10;73.20;;;;;;2446086;56;20983;-71
2020/12/17 06:30:32;;;;;;;6.53;3.58;;;6.10;73.10;;;;;;2232515;56;21492;-71
2020/12/17 06:33:07;;;;;;;4.62;2.62;;;6.10;73.00;;;;;;2234813;56;21012;-72
2020/12/17 06:35:53;;;;;;;5.68;2.65;;;6.10;72.80;;;;;;2208408;56;20994;-72
2020/12/17 06:38:24;;;;;;;4.12;2.05;;;6.10;72.70;;;;;;2234424;56;21052;-72
2020/12/17 06:40:51;;;;;;;3.85;1.95;;;6.20;73.50;;;;;;2445744;55;20991;-72
2020/12/17 06:43:36;;;;;;;4.00;2.10;;;6.20;72.60;;;;;;2449508;56;20987;-70
2020/12/17 06:46:03;;;;;;;5.03;2.65;;;6.20;72.40;;;;;;2448576;55;21043;-72
2020/12/17 06:48:42;;;;;;;4.50;2.33;;;6.20;72.50;;;;;;2442223;55;21387;-72
2020/12/17 06:51:31;;;;;;;6.60;3.50;;;6.20;72.50;;;;;;2450111;55;20984;-72
2020/12/17 06:54:00;;;;;;;5.82;3.00;;;6.20;72.40;;;;;;2462659;55;22368;-72
2020/12/17 06:56:26;;;;;;;6.10;3.17;;;6.20;72.40;;;;;;2234202;55;21888;-71
2020/12/17 07:02:33;;;;;;;7.95;4.20;;;6.20;72.30;;;;;;2442729;55;21043;-72
2020/12/17 07:05:00;;;;;;;6.43;3.55;;;6.20;71.90;;;;;;2238948;55;21079;-71
2020/12/17 07:07:27;;;;;;;7.12;3.97;;;6.20;72.10;;;;;;2462769;55;20980;-72
2020/12/17 07:09:56;;;;;;;9.15;4.30;;;6.20;72.00;;;;;;2461056;55;20972;-71
2020/12/17 07:17:28;;;;;;;5.97;3.53;;;6.20;71.90;;;;;;2446101;56;20988;-71
2020/12/17 07:20:04;;;;;;;6.37;3.10;;;6.10;71.20;;;;;;2445509;56;20920;-72
2020/12/17 07:22:51;;;;;;;5.55;2.95;;;6.10;71.30;;;;;;2229014;55;20995;-72
2020/12/17 07:25:34;;;;;;;6.22;3.37;;;6.00;71.30;;;;;;2244468;55;20987;-72
2020/12/17 07:28:01;;;;;;;7.82;4.25;;;6.00;71.50;;;;;;2448218;55;21008;-72
2020/12/17 07:30:29;;;;;;;8.32;4.80;;;6.00;71.60;;;;;;2445697;55;21372;-72
2020/12/17 07:33:00;;;;;;;8.88;5.05;;;6.00;71.80;;;;;;2444339;55;21015;-72
2020/12/17 07:35:27;;;;;;;8.65;4.87;;;6.00;72.00;;;;;;2444075;55;21455;-72
2020/12/17 07:38:02;;;;;;;9.38;5.75;;;5.90;71.90;;;;;;2445435;55;21385;-72
2020/12/17 07:40:41;;;;;;;9.15;5.57;;;6.00;72.00;;;;;;2225636;56;20978;-72
2020/12/17 07:43:13;;;;;;;9.50;5.45;;;6.00;72.10;;;;;;2444661;55;21033;-72
2020/12/17 07:45:54;;;;;;;7.20;5.00;;;6.00;72.30;;;;;;2441368;55;21050;-72
2020/12/17 07:48:55;;;;;;;9.23;5.95;;;6.00;72.30;;;;;;2443310;55;21075;-72
2020/12/17 07:51:29;;;;;;;9.37;5.83;;;6.00;72.40;;;;;;2230251;55;21470;-71
2020/12/17 07:53:57;;;;;;;9.63;5.82;;;6.00;72.40;;;;;;2444729;55;21026;-72
2020/12/17 07:56:26;;;;;;;10.25;6.03;;;6.00;72.40;;;;;;2444713;55;20967;-72
2020/12/17 07:59:02;;;;;;;8.98;5.90;;;6.00;72.40;;;;;;2228841;55;21080;-72
2020/12/17 08:01:30;;;;;;;14.68;8.27;;;6.00;72.50;;;;;;2230139;55;20984;-72
2020/12/17 08:03:59;;;;;;;15.82;9.20;;;6.00;72.60;;;;;;2230574;56;21031;-72
2020/12/17 08:06:27;;;;;;;12.05;6.72;;;6.00;72.70;;;;;;2442945;55;21589;-72
2020/12/17 08:09:09;;;;;;;9.52;5.40;;;6.10;73.10;;;;;;2446514;55;20962;-73
2020/12/17 08:11:36;;;;;;;11.30;6.47;;;6.10;73.40;;;;;;2447467;56;20925;-72
2020/12/17 08:14:07;;;;;;;8.23;5.43;;;6.10;73.50;;;;;;2444512;55;20974;-72
2020/12/17 08:16:47;;;;;;;9.13;5.80;;;6.20;73.80;;;;;;2446850;55;20944;-72
2020/12/17 08:19:14;;;;;;;10.75;6.00;;;6.20;73.80;;;;;;2239075;56;21043;-72
2020/12/17 08:21:44;;;;;;;9.98;6.03;;;6.20;73.90;;;;;;2227913;55;20967;-73
2020/12/17 08:24:16;;;;;;;11.52;6.82;;;6.30;74.20;;;;;;2240329;56;21566;-71
2020/12/17 08:26:49;;;;;;;9.95;6.10;;;6.30;74.30;;;;;;2227198;55;21067;-72
2020/12/17 08:29:23;;;;;;;10.57;5.93;;;6.40;74.60;;;;;;2440933;55;21015;-72
2020/12/17 08:31:52;;;;;;;9.95;5.47;;;6.40;74.80;;;;;;2449124;55;20952;-73
2020/12/17 08:34:20;;;;;;;9.32;5.43;;;6.50;75.10;;;;;;2449278;55;21060;-72
2020/12/17 08:37:01;;;;;;;9.57;6.20;;;6.60;75.50;;;;;;2230682;55;20990;-72
2020/12/17 08:39:31;;;;;;;10.73;6.57;;;6.70;75.80;;;;;;2445468;56;20962;-73
2020/12/17 08:42:02;;;;;;;14.80;6.65;;;6.80;76.10;;;;;;2445536;55;21031;-73
2020/12/17 08:44:33;;;;;;;9.88;6.12;;;6.90;76.60;;;;;;2241566;55;21147;-72
2020/12/17 08:47:12;;;;;;;10.73;5.62;;;7.00;77.00;;;;;;2450154;55;21476;-72
2020/12/17 08:49:38;;;;;;;11.12;6.40;;;7.10;77.30;;;;;;2239366;56;21047;-73
2020/12/17 08:52:05;;;;;;;10.93;7.18;;;7.30;77.70;;;;;;2238553;56;21022;-72
2020/12/17 08:54:43;;;;;;;10.13;6.45;;;7.40;77.80;;;;;;2225388;56;20975;-71
2020/12/17 08:57:11;;;;;;;9.32;5.57;;;7.50;77.80;;;;;;2237921;56;21063;-72
2020/12/17 08:59:39;;;;;;;9.52;5.93;;;7.70;77.90;;;;;;2222085;55;20971;-72
2020/12/17 09:02:06;;;;;;;9.60;6.03;;;7.80;77.90;;;;;;2454117;55;21005;-72
2020/12/17 09:04:36;;;;;;;10.60;6.05;;;7.90;77.80;;;;;;2210877;56;21011;-72
2020/12/17 09:07:02;;;;;;;8.57;5.35;;;8.00;77.80;;;;;;2227103;55;21044;-72
2020/12/17 09:09:31;;;;;;;9.50;5.35;;;8.10;77.80;;;;;;2461876;55;21601;-73
2020/12/17 09:12:06;;;;;;;9.65;6.03;;;8.20;77.80;;;;;;2418557;56;20984;-73
2020/12/17 09:14:33;;;;;;;12.70;7.10;;;8.30;78.50;;;;;;2446090;55;20948;-73
2020/12/17 09:17:13;;;;;;;17.75;10.13;;;8.50;77.90;;;;;;2462686;55;20997;-73
2020/12/17 09:19:40;;;;;;;17.50;10.40;;;8.60;77.80;;;;;;2241830;56;20965;-73
2020/12/17 09:22:09;;;;;;;25.50;12.93;;;8.70;77.80;;;;;;2224504;56;20976;-73
2020/12/17 09:24:37;;;;;;;23.42;13.57;;;8.80;77.70;;;;;;2206370;57;20972;-73
2020/12/17 09:27:18;;;;;;;20.92;11.12;;;8.90;77.50;;;;;;2458255;56;20941;-72
2020/12/17 09:30:01;;;;;;;20.02;10.63;;;8.90;77.20;;;;;;2238452;55;20995;-72
2020/12/17 09:32:28;;;;;;;23.90;11.75;;;9.00;77.00;;;;;;2451848;55;21815;-73
2020/12/17 09:35:14;;;;;;;18.90;10.65;;;9.10;77.20;;;;;;2238416;56;20965;-73
2020/12/17 09:38:17;;;;;;;16.65;9.85;;;9.20;76.70;;;;;;2462440;55;21408;-73
2020/12/17 09:40:49;;;;;;;16.25;10.73;;;9.30;76.60;;;;;;2238827;55;21433;-73
2020/12/17 09:43:16;;;;;;;12.80;8.35;;;9.30;76.40;;;;;;2462524;55;21525;-72
2020/12/17 09:45:46;;;;;;;14.60;8.90;;;9.40;76.10;;;;;;2462355;55;21024;-73
2020/12/17 09:48:36;;;;;;;12.10;7.78;;;9.40;75.90;;;;;;2238591;56;20973;-73
2020/12/17 09:51:07;;;;;;;11.43;6.93;;;9.50;75.40;;;;;;2442234;56;20945;-73
2020/12/17 09:53:41;;;;;;;11.93;7.20;;;9.40;75.50;;;;;;2239433;55;21088;-72
2020/12/17 09:56:17;;;;;;;11.75;6.32;;;9.50;75.40;;;;;;2411961;56;20988;-73
2020/12/17 09:58:55;;;;;;;9.35;6.12;;;9.60;75.50;;;;;;2440285;56;20983;-72
2020/12/17 10:01:22;;;;;;;11.30;6.90;;;9.60;75.30;;;;;;2451273;56;20965;-72
2020/12/17 10:03:50;;;;;;;9.27;6.20;;;9.60;75.20;;;;;;2228114;56;20975;-73
2020/12/17 10:06:19;;;;;;;11.95;7.53;;;9.60;75.00;;;;;;2446012;56;20968;-73
2020/12/17 10:08:48;;;;;;;10.85;6.70;;;9.70;75.00;;;;;;2462653;55;20987;-72
2020/12/17 10:11:15;;;;;;;9.93;6.07;;;9.70;74.90;;;;;;2462698;55;21024;-72
2020/12/17 10:13:43;;;;;;;9.40;5.80;;;9.70;75.00;;;;;;2456119;56;21007;-72
2020/12/17 10:16:15;;;;;;;12.27;6.82;;;9.70;75.10;;;;;;2443306;55;20967;-72
2020/12/17 10:19:17;;;;;;;27.50;14.55;;;9.80;75.20;;;;;;2418197;56;20998;-72
2020/12/17 10:21:46;;;;;;;14.93;8.93;;;9.90;75.40;;;;;;2462291;56;20996;-72
2020/12/17 10:24:14;;;;;;;12.82;7.35;;;9.80;75.30;;;;;;2446628;55;20991;-72
2020/12/17 10:26:42;;;;;;;10.90;6.20;;;9.90;75.40;;;;;;2421173;56;21008;-72
2020/12/17 10:29:19;;;;;;;11.35;6.35;;;9.90;75.30;;;;;;2461226;55;21008;-72
2020/12/17 10:31:49;;;;;;;8.85;5.78;;;9.90;75.20;;;;;;2226430;56;20975;-72
2020/12/17 10:34:17;;;;;;;9.40;5.68;;;10.00;74.20;;;;;;2457439;55;21118;-73
2020/12/17 10:36:44;;;;;;;10.10;5.78;;;10.00;74.20;;;;;;2443798;55;21599;-72
2020/12/17 10:39:15;;;;;;;10.45;6.70;;;10.10;74.30;;;;;;2230703;56;21582;-73
2020/12/17 10:41:42;;;;;;;9.40;6.00;;;10.10;74.20;;;;;;2444018;55;21007;-73
2020/12/17 10:44:13;;;;;;;10.20;6.43;;;10.10;74.20;;;;;;2433397;55;21407;-72
2020/12/17 10:46:43;;;;;;;11.80;7.05;;;10.10;74.00;;;;;;2446531;55;21043;-72
2020/12/17 10:49:10;;;;;;;9.98;6.47;;;10.20;74.20;;;;;;2444388;55;20959;-73
2020/12/17 10:51:41;;;;;;;9.35;5.95;;;10.20;74.00;;;;;;2443013;55;22451;-72
2020/12/17 10:54:10;;;;;;;8.88;6.07;;;10.20;74.10;;;;;;2444825;55;21240;-73
2020/12/17 10:56:44;;;;;;;10.10;6.47;;;10.30;74.10;;;;;;2440036;55;21474;-73
2020/12/17 10:59:11;;;;;;;9.63;6.07;;;10.30;74.20;;;;;;2444549;55;20966;-73
2020/12/17 11:01:38;;;;;;;9.80;6.03;;;10.30;74.10;;;;;;2238054;55;20972;-72
2020/12/17 11:04:04;;;;;;;8.05;5.28;;;10.40;74.30;;;;;;2237655;56;20975;-72
2020/12/17 11:06:31;;;;;;;7.30;4.65;;;10.40;74.20;;;;;;2229400;56;21449;-73
2020/12/17 11:08:57;;;;;;;7.22;4.78;;;10.40;74.20;;;;;;2238317;56;21060;-72
2020/12/17 11:11:23;;;;;;;8.43;5.55;;;10.50;74.30;;;;;;2453783;55;21055;-73
2020/12/17 11:13:53;;;;;;;10.40;6.87;;;10.30;74.00;;;;;;2231834;55;20944;-73
2020/12/17 11:16:22;;;;;;;9.38;6.25;;;10.50;74.10;;;;;;2206327;57;21038;-73
2020/12/17 11:19:03;;;;;;;10.20;6.05;;;10.50;73.90;;;;;;2442012;55;21030;-72
2020/12/17 11:21:30;;;;;;;9.48;6.05;;;10.50;73.80;;;;;;2443263;55;21580;-72
2020/12/17 11:23:57;;;;;;;9.73;5.82;;;10.60;73.90;;;;;;2226057;55;21016;-73
2020/12/17 11:26:27;;;;;;;10.35;6.97;;;10.60;74.00;;;;;;2225070;55;20970;-72
2020/12/17 11:28:58;;;;;;;9.43;5.82;;;10.60;74.00;;;;;;2449796;55;21078;-72
2020/12/17 11:31:26;;;;;;;8.93;5.70;;;10.60;74.00;;;;;;2441574;55;20974;-73
2020/12/17 11:34:00;;;;;;;9.65;6.15;;;10.60;74.20;;;;;;2234873;55;21008;-72
2020/12/17 11:36:29;;;;;;;7.62;4.57;;;10.70;74.40;;;;;;2447768;56;21099;-73
2020/12/17 11:38:56;;;;;;;9.48;5.28;;;10.70;74.50;;;;;;2454662;56;21099;-72
2020/12/17 11:41:23;;;;;;;7.97;5.07;;;10.80;74.80;;;;;;2228193;56;20987;-73
2020/12/17 11:43:49;;;;;;;8.25;5.18;;;10.80;74.90;;;;;;2227454;56;21037;-72
2020/12/17 11:46:20;;;;;;;7.68;5.18;;;10.80;74.90;;;;;;2232812;56;20990;-71
2020/12/17 11:48:46;;;;;;;8.02;4.78;;;10.90;75.00;;;;;;2234713;56;21012;-73
2020/12/17 11:51:15;;;;;;;8.27;4.93;;;10.90;75.10;;;;;;2236959;56;21155;-73
2020/12/17 11:53:42;;;;;;;9.95;4.97;;;11.00;75.20;;;;;;2445105;56;21047;-73
2020/12/17 11:56:15;;;;;;;7.62;4.47;;;11.00;75.30;;;;;;2443049;55;20967;-73
2020/12/17 11:58:44;;;;;;;7.03;3.78;;;11.10;75.40;;;;;;2226873;56;21011;-73
2020/12/17 12:01:11;;;;;;;5.95;3.65;;;11.20;75.70;;;;;;2233637;55;21011;-73
2020/12/17 12:03:40;;;;;;;6.32;3.70;;;11.20;75.70;;;;;;2225544;56;20972;-73
2020/12/17 12:06:07;;;;;;;6.90;3.62;;;11.30;75.90;;;;;;2242640;55;21007;-73
2020/12/17 12:08:37;;;;;;;6.07;3.20;;;11.40;75.90;;;;;;2224610;56;20981;-72
2020/12/17 12:11:05;;;;;;;5.60;3.80;;;11.40;75.80;;;;;;2457692;56;20996;-75
2020/12/17 12:13:36;;;;;;;6.53;3.80;;;11.50;75.80;;;;;;2451251;56;20948;-73
2020/12/17 12:16:08;;;;;;;7.45;3.10;;;11.50;75.70;;;;;;2238418;55;21038;-72
2020/12/17 12:18:44;;;;;;;6.35;4.30;;;11.60;75.80;;;;;;2451525;55;21020;-73
2020/12/17 12:21:12;;;;;;;6.12;3.37;;;11.70;75.50;;;;;;2443410;55;20990;-73
2020/12/17 12:23:44;;;;;;;5.15;2.92;;;11.70;75.70;;;;;;2225709;55;21098;-72
2020/12/17 12:26:11;;;;;;;6.65;3.45;;;11.80;75.80;;;;;;2451472;56;20957;-72
2020/12/17 12:28:39;;;;;;;4.90;2.75;;;11.80;76.40;;;;;;2239451;56;21060;-73
2020/12/17 12:31:07;;;;;;;3.92;2.30;;;11.90;75.70;;;;;;2229522;55;21011;-73
2020/12/17 12:33:34;;;;;;;3.90;2.25;;;11.90;75.60;;;;;;2234723;56;21003;-72
2020/12/17 12:36:01;;;;;;;4.53;2.33;;;12.00;75.50;;;;;;2449155;55;20986;-73
2020/12/17 12:38:30;;;;;;;4.68;2.72;;;12.00;75.40;;;;;;2238410;55;20955;-73
2020/12/17 12:41:00;;;;;;;5.68;3.10;;;12.00;75.10;;;;;;2441628;55;21086;-73
2020/12/17 12:43:27;;;;;;;5.45;3.25;;;12.00;74.90;;;;;;2443592;55;21038;-73
2020/12/17 12:45:54;;;;;;;4.87;2.75;;;12.00;74.70;;;;;;2225853;55;20983;-73
2020/12/17 12:48:21;;;;;;;7.00;3.15;;;12.00;74.60;;;;;;2450339;55;20987;-73
2020/12/17 12:50:57;;;;;;;6.05;3.20;;;12.00;74.60;;;;;;2446464;56;20995;-73
2020/12/17 12:53:25;;;;;;;4.93;2.83;;;12.00;74.50;;;;;;2444894;55;22179;-73
2020/12/17 12:55:52;;;;;;;4.78;3.03;;;12.10;74.70;;;;;;2446058;56;21827;-73
2020/12/17 12:58:24;;;;;;;5.95;3.00;;;12.10;74.90;;;;;;2444612;55;21035;-73
2020/12/17 13:00:56;;;;;;;3.78;2.15;;;12.10;74.90;;;;;;2447402;55;20936;-73
2020/12/17 13:03:23;;;;;;;5.10;1.87;;;12.10;74.90;;;;;;2230508;56;21652;-73
2020/12/17 13:05:58;;;;;;;4.90;2.20;;;12.20;75.10;;;;;;2444754;55;21026;-72
2020/12/17 13:08:26;;;;;;;6.25;2.60;;;12.20;75.10;;;;;;2228505;56;20937;-73
2020/12/17 13:10:53;;;;;;;4.47;2.37;;;12.20;75.10;;;;;;2444793;56;20980;-73
2020/12/17 13:13:22;;;;;;;9.02;4.85;;;12.30;75.20;;;;;;2442817;55;20987;-73